createdAt,value
2019-04-28T00:00:51.069Z,7.87
2019-04-28T00:03:20.770Z,8.18
2019-04-28T00:05:51.347Z,8.15
2019-04-28T00:08:20.822Z,8.03
2019-04-28T00:10:49.635Z,7.90
2019-04-28T00:13:18.479Z,7.35
2019-04-28T00:15:47.188Z,7.22
2019-04-28T00:18:15.969Z,7.75
2019-04-28T00:20:46.239Z,7.42
2019-04-28T00:23:19.595Z,7.53
2019-04-28T00:25:52.763Z,8.38
2019-04-28T00:28:21.399Z,8.15
2019-04-28T00:30:51.624Z,7.22
2019-04-28T00:33:20.314Z,7.50
2019-04-28T00:35:48.938Z,8.23
2019-04-28T00:38:17.628Z,7.60
2019-04-28T00:40:46.223Z,8.08
2019-04-28T00:43:14.953Z,7.70
2019-04-28T00:45:43.554Z,7.80
2019-04-28T00:48:12.295Z,8.10
2019-04-28T00:50:41.342Z,7.45
2019-04-28T00:53:11.675Z,7.45
2019-04-28T00:55:41.669Z,7.17
2019-04-28T00:58:10.896Z,8.35
2019-04-28T01:00:47.371Z,8.63
2019-04-28T01:03:16.042Z,8.35
2019-04-28T01:05:44.807Z,9.40
2019-04-28T01:08:13.532Z,8.38
2019-04-28T01:10:42.170Z,8.08
2019-04-28T01:13:11.680Z,8.18
2019-04-28T01:15:42.175Z,8.05
2019-04-28T01:18:24.634Z,8.48
2019-04-28T01:20:53.397Z,9.50
2019-04-28T01:23:22.313Z,9.40
2019-04-28T01:25:51.058Z,9.00
2019-04-28T01:28:21.288Z,8.25
2019-04-28T01:30:51.631Z,8.78
2019-04-28T01:33:21.986Z,8.33
2019-04-28T01:35:50.673Z,8.68
2019-04-28T01:38:20.444Z,8.25
2019-04-28T01:40:49.964Z,8.13
2019-04-28T01:43:19.613Z,8.48
2019-04-28T01:45:50.110Z,8.95
2019-04-28T01:48:19.865Z,8.68
2019-04-28T01:50:49.979Z,8.35
2019-04-28T01:53:19.927Z,8.80
2019-04-28T01:55:49.488Z,8.25
2019-04-28T01:58:20.448Z,9.10
2019-04-28T02:00:50.404Z,8.55
2019-04-28T02:03:20.581Z,8.43
2019-04-28T02:05:50.163Z,8.93
2019-04-28T02:08:20.298Z,9.30
2019-04-28T02:10:50.174Z,10.05
2019-04-28T02:13:19.881Z,9.30
2019-04-28T02:15:50.100Z,9.30
2019-04-28T02:18:19.957Z,9.55
2019-04-28T02:20:51.180Z,10.63
2019-04-28T02:23:21.588Z,10.15
2019-04-28T02:25:50.181Z,10.43
2019-04-28T02:28:19.795Z,10.08
2019-04-28T02:30:53.263Z,10.55
2019-04-28T02:33:21.017Z,10.15
2019-04-28T02:35:51.084Z,10.32
2019-04-28T02:38:20.995Z,11.20
2019-04-28T02:40:50.432Z,10.60
2019-04-28T02:43:20.901Z,11.28
2019-04-28T02:45:53.045Z,10.35
2019-04-28T02:48:22.120Z,10.70
2019-04-28T02:50:55.260Z,11.00
2019-04-28T02:53:25.538Z,9.93
2019-04-28T02:55:54.157Z,10.95
2019-04-28T02:58:22.775Z,10.15
2019-04-28T03:01:05.014Z,10.30
2019-04-28T03:03:21.762Z,10.03
2019-04-28T03:05:51.256Z,10.10
2019-04-28T03:08:21.409Z,10.78
2019-04-28T03:10:50.877Z,10.55
2019-04-28T03:13:20.872Z,10.65
2019-04-28T03:15:51.531Z,10.80
2019-04-28T03:18:21.455Z,10.32
2019-04-28T03:20:51.533Z,9.53
2019-04-28T03:23:20.903Z,10.13
2019-04-28T03:25:51.362Z,9.78
2019-04-28T03:28:24.621Z,9.10
2019-04-28T03:30:54.942Z,9.58
2019-04-28T03:33:26.467Z,8.58
2019-04-28T03:35:55.356Z,9.63
2019-04-28T03:38:23.944Z,9.58
2019-04-28T03:40:52.622Z,10.93
2019-04-28T03:43:21.456Z,9.15
2019-04-28T03:45:51.827Z,9.00
2019-04-28T03:48:21.125Z,8.23
2019-04-28T03:50:51.400Z,8.60
2019-04-28T03:53:20.767Z,8.43
2019-04-28T03:55:51.280Z,8.30
2019-04-28T03:58:23.766Z,8.58
2019-04-28T04:00:50.836Z,7.75
2019-04-28T04:03:21.019Z,9.03
2019-04-28T04:05:50.840Z,8.33
2019-04-28T04:08:20.864Z,7.95
2019-04-28T04:10:51.562Z,8.30
2019-04-28T04:13:21.830Z,9.00
2019-04-28T04:15:57.758Z,7.87
2019-04-28T04:18:30.730Z,8.60
2019-04-28T04:21:00.621Z,8.33
2019-04-28T04:23:30.867Z,7.87
2019-04-28T04:26:01.405Z,8.90
2019-04-28T04:28:30.418Z,8.23
2019-04-28T04:31:02.439Z,8.15
2019-04-28T04:33:30.976Z,7.95
2019-04-28T04:36:01.538Z,7.20
2019-04-28T04:38:31.369Z,8.23
2019-04-28T04:41:01.550Z,8.03
2019-04-28T04:43:31.199Z,8.03
2019-04-28T04:46:14.262Z,7.58
2019-04-28T04:48:44.116Z,8.13
2019-04-28T04:51:12.984Z,7.97
2019-04-28T04:53:41.836Z,7.87
2019-04-28T04:56:10.651Z,8.18
2019-04-28T04:58:40.706Z,7.53
2019-04-28T05:01:20.513Z,7.42
2019-04-28T05:03:50.754Z,6.90
2019-04-28T05:06:35.271Z,8.00
2019-04-28T05:09:11.851Z,7.53
2019-04-28T05:11:40.484Z,8.10
2019-04-28T05:14:11.548Z,8.03
2019-04-28T05:16:40.036Z,7.95
2019-04-28T05:19:10.197Z,7.42
2019-04-28T05:21:40.237Z,7.53
2019-04-28T05:24:17.481Z,7.12
2019-04-28T05:26:49.104Z,8.18
2019-04-28T05:29:21.823Z,7.57
2019-04-28T05:31:50.370Z,7.40
2019-04-28T05:34:20.522Z,7.75
2019-04-28T05:37:01.850Z,7.25
2019-04-28T05:39:31.461Z,7.95
2019-04-28T05:42:00.821Z,7.87
2019-04-28T05:44:29.936Z,7.72
2019-04-28T05:47:00.001Z,8.53
2019-04-28T05:49:33.116Z,8.03
2019-04-28T05:52:20.031Z,7.75
2019-04-28T05:54:50.334Z,8.88
2019-04-28T05:57:23.442Z,7.78
2019-04-28T05:59:56.425Z,8.13
2019-04-28T06:02:32.859Z,9.00
2019-04-28T06:05:01.456Z,8.98
2019-04-28T06:07:47.276Z,7.92
2019-04-28T06:10:15.987Z,7.78
2019-04-28T06:12:44.745Z,7.90
2019-04-28T06:15:13.608Z,8.13
2019-04-28T06:17:42.195Z,8.10
2019-04-28T06:20:11.782Z,8.28
2019-04-28T06:22:40.503Z,9.00
2019-04-28T06:25:09.306Z,8.68
2019-04-28T06:27:37.927Z,8.80
2019-04-28T06:30:07.027Z,8.55
2019-04-28T06:32:36.205Z,8.60
2019-04-28T06:35:07.128Z,9.15
2019-04-28T06:37:35.802Z,9.28
2019-04-28T06:40:07.587Z,9.65
2019-04-28T06:42:36.265Z,9.75
2019-04-28T06:45:06.982Z,9.43
2019-04-28T06:47:35.657Z,9.98
2019-04-28T06:50:06.386Z,9.43
2019-04-28T06:52:34.986Z,9.73
2019-04-28T06:55:04.635Z,9.60
2019-04-28T06:57:33.290Z,9.55
2019-04-28T07:00:01.966Z,10.70
2019-04-28T07:02:30.668Z,11.03
2019-04-28T07:05:02.299Z,11.88
2019-04-28T07:07:29.535Z,10.80
2019-04-28T07:09:58.152Z,11.53
2019-04-28T07:12:26.839Z,11.68
2019-04-28T07:14:55.425Z,12.20
2019-04-28T07:17:24.134Z,11.48
2019-04-28T07:20:11.035Z,12.28
2019-04-28T07:22:39.748Z,12.05
2019-04-28T07:25:08.401Z,12.03
2019-04-28T07:27:37.115Z,12.47
2019-04-28T07:30:09.377Z,12.80
2019-04-28T07:32:38.081Z,13.25
2019-04-28T07:35:07.019Z,12.63
2019-04-28T07:37:35.626Z,12.58
2019-04-28T07:40:06.801Z,13.05
2019-04-28T07:42:35.427Z,12.53
2019-04-28T07:45:05.873Z,13.75
2019-04-28T07:47:34.664Z,13.00
2019-04-28T07:50:05.169Z,13.13
2019-04-28T07:52:35.414Z,12.47
2019-04-28T07:55:06.270Z,11.57
2019-04-28T07:57:34.977Z,11.60
2019-04-28T08:00:05.182Z,10.80
2019-04-28T08:02:33.855Z,11.05
2019-04-28T08:05:02.550Z,10.95
2019-04-28T08:07:31.216Z,11.97
2019-04-28T08:09:59.821Z,12.25
2019-04-28T08:12:28.424Z,13.13
2019-04-28T08:14:57.073Z,12.60
2019-04-28T08:17:25.662Z,13.03
2019-04-28T08:19:54.341Z,11.85
2019-04-28T08:22:23.069Z,11.88
2019-04-28T08:24:51.654Z,11.45
2019-04-28T08:27:20.427Z,13.10
2019-04-28T08:29:58.278Z,11.60
2019-04-28T08:32:30.445Z,11.85
2019-04-28T08:34:59.073Z,12.65
2019-04-28T08:37:27.709Z,11.65
2019-04-28T08:39:56.278Z,14.03
2019-04-28T08:42:25.030Z,11.85
2019-04-28T08:44:53.631Z,11.25
2019-04-28T08:47:22.406Z,12.28
2019-04-28T08:49:51.071Z,11.63
2019-04-28T08:52:19.756Z,11.60
2019-04-28T08:54:48.543Z,11.85
2019-04-28T08:57:17.261Z,11.03
2019-04-28T08:59:45.882Z,12.55
2019-04-28T09:02:14.530Z,11.40
2019-04-28T09:04:43.184Z,11.80
2019-04-28T09:07:11.781Z,11.97
2019-04-28T09:09:40.382Z,12.23
2019-04-28T09:12:08.996Z,11.73
2019-04-28T09:14:37.605Z,10.45
2019-04-28T09:17:06.334Z,12.00
2019-04-28T09:19:34.945Z,12.23
2019-04-28T09:22:04.298Z,11.73
2019-04-28T09:24:33.014Z,11.43
2019-04-28T09:27:01.690Z,11.55
2019-04-28T09:29:30.307Z,10.68
2019-04-28T09:31:59.056Z,11.90
2019-04-28T09:34:28.697Z,11.00
2019-04-28T09:36:58.503Z,10.90
2019-04-28T09:39:31.266Z,10.63
2019-04-28T09:42:04.596Z,10.32
2019-04-28T09:44:33.157Z,10.10
2019-04-28T09:47:02.111Z,10.45
2019-04-28T09:49:30.700Z,10.72
2019-04-28T09:51:59.330Z,9.75
2019-04-28T09:54:27.901Z,10.30
2019-04-28T09:56:57.263Z,9.53
2019-04-28T09:59:25.964Z,9.45
2019-04-28T10:01:54.594Z,9.33
2019-04-28T10:04:23.333Z,9.13
2019-04-28T10:06:52.265Z,9.23
2019-04-28T10:09:20.949Z,10.10
2019-04-28T10:11:49.632Z,10.38
2019-04-28T10:14:18.239Z,9.75
2019-04-28T10:16:47.146Z,10.25
2019-04-28T10:19:15.858Z,9.38
2019-04-28T10:21:44.647Z,9.70
2019-04-28T10:24:13.226Z,9.65
2019-04-28T10:26:41.901Z,8.70
2019-04-28T10:29:10.633Z,9.10
2019-04-28T10:31:39.321Z,9.05
2019-04-28T10:34:08.090Z,9.90
2019-04-28T10:36:36.702Z,9.53
2019-04-28T10:39:18.743Z,9.70
2019-04-28T10:41:47.589Z,9.38
2019-04-28T10:44:16.662Z,9.43
2019-04-28T10:46:45.389Z,9.33
2019-04-28T10:49:14.058Z,9.05
2019-04-28T10:51:42.806Z,9.88
2019-04-28T10:54:11.476Z,9.73
2019-04-28T10:56:40.074Z,8.90
2019-04-28T10:59:08.901Z,9.13
2019-04-28T11:01:37.695Z,9.08
2019-04-28T11:04:24.340Z,9.00
2019-04-28T11:06:53.383Z,9.18
2019-04-28T11:09:35.889Z,8.45
2019-04-28T11:12:06.465Z,8.98
2019-04-28T11:14:35.210Z,9.13
2019-04-28T11:17:04.204Z,9.85
2019-04-28T11:19:32.843Z,9.20
2019-04-28T11:22:01.422Z,9.55
2019-04-28T11:24:30.040Z,9.43
2019-04-28T11:26:58.781Z,9.70
2019-04-28T11:29:27.511Z,9.60
2019-04-28T11:31:56.193Z,9.13
2019-04-28T11:34:29.290Z,9.00
2019-04-28T11:36:58.009Z,8.50
2019-04-28T11:39:28.240Z,9.20
2019-04-28T11:41:56.883Z,9.38
2019-04-28T11:44:25.495Z,9.38
2019-04-28T11:46:54.234Z,9.93
2019-04-28T11:49:22.826Z,10.10
2019-04-28T11:51:51.599Z,10.03
2019-04-28T11:54:20.308Z,8.48
2019-04-28T11:56:48.975Z,9.45
2019-04-28T11:59:17.705Z,9.33
2019-04-28T12:01:46.452Z,9.58
2019-04-28T12:04:16.685Z,9.13
2019-04-28T12:06:45.264Z,8.60
2019-04-28T12:09:18.362Z,9.28
2019-04-28T12:11:51.282Z,8.90
2019-04-28T12:17:09.569Z,8.88
2019-04-28T12:19:45.991Z,9.00
2019-04-28T12:22:14.727Z,9.85
2019-04-28T12:24:43.322Z,9.35
2019-04-28T12:27:11.946Z,9.70
2019-04-28T12:29:40.763Z,9.40
2019-04-28T12:32:09.482Z,9.75
2019-04-28T12:34:38.193Z,9.33
2019-04-28T12:37:06.943Z,9.90
2019-04-28T12:39:35.683Z,9.28
2019-04-28T12:42:04.417Z,8.93
2019-04-28T12:44:33.188Z,9.00
2019-04-28T12:47:01.880Z,8.43
2019-04-28T12:49:37.782Z,8.48
2019-04-28T12:52:08.171Z,9.05
2019-04-28T12:54:38.555Z,8.65
2019-04-28T12:57:07.243Z,8.25
2019-04-28T12:59:40.026Z,8.83
2019-04-28T13:02:19.695Z,8.03
2019-04-28T13:04:53.102Z,8.33
2019-04-28T13:07:21.759Z,7.83
2019-04-28T13:09:50.507Z,8.10
2019-04-28T13:12:19.141Z,7.60
2019-04-28T13:14:47.822Z,7.50
2019-04-28T13:17:16.435Z,7.62
2019-04-28T13:19:45.022Z,7.25
2019-04-28T13:22:13.688Z,6.75
2019-04-28T13:24:42.439Z,6.97
2019-04-28T13:27:11.143Z,6.80
2019-04-28T13:29:39.701Z,6.53
2019-04-28T13:32:08.402Z,7.17
2019-04-28T13:34:38.953Z,6.78
2019-04-28T13:37:08.002Z,6.97
2019-04-28T13:39:41.340Z,6.42
2019-04-28T13:42:10.050Z,6.40
2019-04-28T13:44:49.772Z,6.75
2019-04-28T13:47:18.445Z,6.25
2019-04-28T13:49:48.863Z,5.83
2019-04-28T13:52:17.537Z,6.42
2019-04-28T13:54:47.859Z,6.40
2019-04-28T13:57:16.672Z,5.85
2019-04-28T13:59:47.213Z,5.65
2019-04-28T14:02:17.546Z,4.80
2019-04-28T14:05:04.083Z,5.50
2019-04-28T14:07:32.842Z,5.40
2019-04-28T14:10:01.371Z,4.87
2019-04-28T14:12:30.113Z,4.90
2019-04-28T14:14:58.726Z,5.00
2019-04-28T14:17:29.355Z,4.90
2019-04-28T14:19:57.906Z,5.35
2019-04-28T14:22:26.553Z,4.55
2019-04-28T14:24:55.236Z,5.05
2019-04-28T14:27:23.856Z,4.85
2019-04-28T14:29:52.407Z,4.05
2019-04-28T14:32:21.220Z,3.98
2019-04-28T14:34:49.872Z,4.45
2019-04-28T14:37:18.613Z,3.83
2019-04-28T14:39:47.258Z,4.03
2019-04-28T14:42:15.865Z,4.20
2019-04-28T14:44:44.702Z,4.37
2019-04-28T14:47:13.381Z,4.45
2019-04-28T14:49:41.989Z,4.17
2019-04-28T14:52:10.673Z,3.83
2019-04-28T14:54:39.298Z,3.60
2019-04-28T14:57:07.891Z,4.33
2019-04-28T14:59:36.526Z,3.75
2019-04-28T15:02:12.913Z,3.67
2019-04-28T15:04:54.875Z,3.50
2019-04-28T15:07:41.527Z,3.90
2019-04-28T15:10:28.210Z,3.87
2019-04-28T15:12:57.642Z,3.60
2019-04-28T15:15:27.387Z,3.33
2019-04-28T15:17:55.931Z,3.40
2019-04-28T15:20:24.577Z,3.27
2019-04-28T15:22:53.158Z,4.17
2019-04-28T15:25:21.754Z,3.33
2019-04-28T15:27:50.397Z,3.20
2019-04-28T15:30:19.370Z,3.33
2019-04-28T15:32:48.009Z,3.85
2019-04-28T15:35:16.729Z,3.70
2019-04-28T15:37:45.635Z,3.10
2019-04-28T15:40:14.427Z,3.55
2019-04-28T15:42:43.069Z,3.60
2019-04-28T15:45:11.903Z,3.55
2019-04-28T15:47:40.508Z,3.60
2019-04-28T15:50:09.539Z,3.47
2019-04-28T15:52:38.134Z,3.65
2019-04-28T15:55:09.438Z,2.92
2019-04-28T15:57:38.035Z,3.45
2019-04-28T16:00:08.936Z,3.27
2019-04-28T16:02:37.601Z,3.00
2019-04-28T16:05:09.950Z,3.27
2019-04-28T16:07:38.610Z,2.87
2019-04-28T16:10:07.835Z,2.87
2019-04-28T16:12:36.473Z,2.60
2019-04-28T16:15:07.514Z,2.58
2019-04-28T16:17:36.196Z,2.50
2019-04-28T16:20:07.736Z,2.35
2019-04-28T16:22:36.532Z,2.10
2019-04-28T16:25:06.663Z,2.20
2019-04-28T16:27:35.418Z,1.92
2019-04-28T16:30:06.231Z,1.92
2019-04-28T16:32:34.955Z,2.27
2019-04-28T16:35:04.068Z,1.95
2019-04-28T16:37:38.969Z,2.17
2019-04-28T16:40:06.606Z,2.05
2019-04-28T16:42:34.404Z,1.87
2019-04-28T16:45:04.115Z,2.50
2019-04-28T16:47:32.717Z,2.35
2019-04-28T16:50:01.323Z,2.15
2019-04-28T16:52:29.939Z,2.47
2019-04-28T16:55:15.260Z,2.22
2019-04-28T16:57:45.785Z,2.35
2019-04-28T17:00:32.761Z,2.08
2019-04-28T17:03:01.394Z,2.27
2019-04-28T17:05:30.067Z,3.58
2019-04-28T17:07:58.664Z,3.02
2019-04-28T17:10:27.263Z,2.83
2019-04-28T17:12:55.928Z,2.60
2019-04-28T17:15:24.751Z,2.50
2019-04-28T17:17:53.511Z,2.67
2019-04-28T17:20:22.178Z,2.52
2019-04-28T17:22:50.815Z,2.40
2019-04-28T17:25:19.526Z,2.20
2019-04-28T17:27:48.096Z,2.37
2019-04-28T17:30:17.141Z,2.10
2019-04-28T17:32:45.867Z,1.92
2019-04-28T17:35:14.900Z,1.70
2019-04-28T17:37:43.615Z,2.00
2019-04-28T17:40:13.723Z,2.00
2019-04-28T17:42:42.862Z,2.33
2019-04-28T17:45:12.148Z,2.12
2019-04-28T17:47:40.920Z,2.20
2019-04-28T17:50:10.913Z,2.22
2019-04-28T17:52:39.448Z,1.80
2019-04-28T17:55:08.399Z,2.40
2019-04-28T17:57:36.975Z,1.57
2019-04-28T18:00:16.661Z,1.92
2019-04-28T18:02:49.489Z,1.72
2019-04-28T18:05:26.096Z,1.92
2019-04-28T18:07:56.696Z,2.08
2019-04-28T18:10:26.052Z,1.80
2019-04-28T18:13:00.532Z,2.02
2019-04-28T18:15:36.391Z,1.77
2019-04-28T18:18:09.863Z,1.98
2019-04-28T18:20:38.554Z,1.98
2019-04-28T18:23:07.169Z,2.15
2019-04-28T18:25:35.829Z,2.30
2019-04-28T18:28:04.607Z,2.12
2019-04-28T18:30:34.931Z,1.75
2019-04-28T18:33:07.689Z,1.95
2019-04-28T18:35:38.018Z,1.95
2019-04-28T18:38:34.027Z,2.37
2019-04-28T18:40:52.343Z,2.45
2019-04-28T18:43:22.583Z,2.17
2019-04-28T18:45:51.263Z,2.17
2019-04-28T18:48:19.871Z,2.95
2019-04-28T18:50:48.578Z,2.42
2019-04-28T18:53:17.310Z,2.17
2019-04-28T18:55:45.873Z,2.77
2019-04-28T18:58:14.482Z,2.22
2019-04-28T19:00:44.804Z,2.25
2019-04-28T19:03:13.542Z,2.08
2019-04-28T19:05:43.914Z,2.35
2019-04-28T19:08:29.238Z,2.58
2019-04-28T19:11:05.353Z,2.15
2019-04-28T19:13:35.706Z,2.12
2019-04-28T19:16:18.065Z,1.90
2019-04-28T19:18:48.357Z,2.20
2019-04-28T19:21:16.998Z,1.92
2019-04-28T19:23:45.675Z,2.02
2019-04-28T19:26:14.267Z,2.25
2019-04-28T19:28:42.897Z,1.90
2019-04-28T19:31:11.564Z,1.80
2019-04-28T19:33:40.149Z,1.95
2019-04-28T19:36:08.815Z,2.15
2019-04-28T19:38:37.407Z,1.85
2019-04-28T19:41:05.986Z,1.95
2019-04-28T19:43:34.717Z,1.87
2019-04-28T19:46:04.968Z,2.55
2019-04-28T19:48:33.558Z,1.98
2019-04-28T19:51:02.212Z,2.25
2019-04-28T19:53:31.970Z,2.37
2019-04-28T19:56:02.302Z,2.10
2019-04-28T19:58:32.618Z,2.17
2019-04-28T20:01:02.847Z,2.27
2019-04-28T20:03:31.442Z,2.27
2019-04-28T20:06:00.074Z,2.05
2019-04-28T20:08:28.849Z,1.80
2019-04-28T20:10:57.434Z,2.62
2019-04-28T20:13:26.034Z,1.92
2019-04-28T20:15:54.641Z,2.02
2019-04-28T20:18:23.305Z,2.52
2019-04-28T20:20:51.990Z,2.02
2019-04-28T20:23:20.641Z,2.45
2019-04-28T20:25:49.309Z,1.77
2019-04-28T20:28:17.988Z,2.30
2019-04-28T20:30:46.775Z,2.00
2019-04-28T20:33:15.363Z,1.82
2019-04-28T20:35:45.697Z,2.33
2019-04-28T20:38:16.040Z,2.12
2019-04-28T20:40:55.679Z,2.10
2019-04-28T20:43:25.878Z,2.15
2019-04-28T20:45:54.526Z,1.95
2019-04-28T20:48:23.197Z,2.02
2019-04-28T20:50:51.806Z,2.15
2019-04-28T20:53:20.400Z,2.15
2019-04-28T20:55:49.080Z,1.70
2019-04-28T20:58:17.668Z,2.05
2019-04-28T21:00:46.375Z,2.02
2019-04-28T21:03:14.990Z,1.65
2019-04-28T21:05:43.646Z,1.60
2019-04-28T21:08:12.307Z,2.52
2019-04-28T21:10:40.930Z,2.02
2019-04-28T21:13:09.530Z,2.35
2019-04-28T21:15:38.409Z,2.05
2019-04-28T21:18:07.170Z,2.33
2019-04-28T21:20:35.805Z,1.92
2019-04-28T21:23:04.415Z,2.10
2019-04-28T21:25:33.078Z,2.00
2019-04-28T21:28:01.802Z,2.02
2019-04-28T21:30:30.510Z,2.10
2019-04-28T21:32:59.124Z,2.40
2019-04-28T21:35:27.757Z,1.95
2019-04-28T21:37:56.337Z,2.37
2019-04-28T21:40:25.626Z,2.33
2019-04-28T21:42:55.828Z,2.15
2019-04-28T21:45:44.493Z,2.15
2019-04-28T21:48:14.810Z,2.05
2019-04-28T21:50:43.396Z,1.77
2019-04-28T21:53:12.119Z,2.30
2019-04-28T21:55:40.817Z,1.92
2019-04-28T21:58:09.429Z,2.12
2019-04-28T22:00:54.097Z,1.85
2019-04-28T22:03:22.803Z,1.90
2019-04-28T22:05:51.664Z,2.12
2019-04-28T22:08:20.366Z,1.80
2019-04-28T22:10:49.035Z,1.75
2019-04-28T22:13:17.700Z,2.02
2019-04-28T22:15:46.366Z,2.33
2019-04-28T22:18:15.056Z,2.25
2019-04-28T22:20:43.785Z,2.42
2019-04-28T22:23:18.751Z,1.85
2019-04-28T22:25:44.349Z,2.00
2019-04-28T22:28:13.062Z,1.87
2019-04-28T22:30:41.688Z,1.72
2019-04-28T22:33:10.396Z,2.50
2019-04-28T22:35:38.975Z,1.77
2019-04-28T22:38:07.585Z,2.00
2019-04-28T22:40:36.315Z,2.37
2019-04-28T22:43:05.209Z,2.10
2019-04-28T22:45:33.838Z,1.85
2019-04-28T22:48:03.226Z,2.12
2019-04-28T22:50:42.870Z,1.92
2019-04-28T22:53:11.812Z,2.45
2019-04-28T22:55:42.163Z,1.85
2019-04-28T22:58:15.284Z,2.22
2019-04-28T23:00:45.677Z,2.00
2019-04-28T23:03:32.857Z,2.20
2019-04-28T23:06:01.564Z,2.10
2019-04-28T23:08:30.234Z,1.87
2019-04-28T23:10:59.009Z,2.35
2019-04-28T23:13:27.777Z,2.20
2019-04-28T23:15:56.566Z,2.62
2019-04-28T23:18:25.319Z,2.20
2019-04-28T23:20:56.421Z,2.00
2019-04-28T23:23:25.254Z,1.90
2019-04-28T23:25:53.864Z,2.17
2019-04-28T23:28:22.491Z,2.62
2019-04-28T23:30:51.116Z,2.77
2019-04-28T23:33:19.787Z,2.47
2019-04-28T23:35:48.417Z,2.27
2019-04-28T23:38:17.082Z,2.55
2019-04-28T23:40:47.946Z,2.00
2019-04-28T23:43:20.980Z,2.55
2019-04-28T23:45:49.703Z,2.00
2019-04-28T23:48:18.332Z,2.10
2019-04-28T23:51:00.626Z,2.12
2019-04-28T23:53:47.323Z,2.13
2019-04-28T23:56:15.958Z,1.90
2019-04-28T23:58:44.643Z,2.42
